createdAt,value
2022-10-30T00:02:09.729Z,3.00
2022-10-30T00:04:41.730Z,2.60
2022-10-30T00:07:13.526Z,2.30
2022-10-30T00:09:45.270Z,3.37
2022-10-30T00:12:17.065Z,2.73
2022-10-30T00:14:48.823Z,2.27
2022-10-30T00:17:20.580Z,2.17
2022-10-30T00:19:52.363Z,3.30
2022-10-30T00:22:24.104Z,2.60
2022-10-30T00:24:55.918Z,2.67
2022-10-30T00:27:27.708Z,2.70
2022-10-30T00:29:59.504Z,2.47
2022-10-30T00:32:31.259Z,3.00
2022-10-30T00:35:03.190Z,2.43
2022-10-30T00:37:35.926Z,2.00
2022-10-30T00:40:07.708Z,3.53
2022-10-30T00:42:39.465Z,3.13
2022-10-30T00:45:11.260Z,2.10
2022-10-30T00:47:43.014Z,2.63
2022-10-30T00:50:14.970Z,3.00
2022-10-30T00:52:48.508Z,2.67
2022-10-30T00:55:20.294Z,2.23
2022-10-30T00:57:52.105Z,2.10
2022-10-30T01:00:23.944Z,1.97
2022-10-30T01:02:56.143Z,2.40
2022-10-30T01:05:28.267Z,3.13
2022-10-30T01:08:00.450Z,2.50
2022-10-30T01:10:32.642Z,2.07
2022-10-30T01:13:05.266Z,2.60
2022-10-30T01:15:37.050Z,2.03
2022-10-30T01:18:09.483Z,2.37
2022-10-30T01:20:42.158Z,2.40
2022-10-30T01:23:13.891Z,1.80
2022-10-30T01:25:46.394Z,2.00
2022-10-30T01:28:18.419Z,1.80
2022-10-30T01:30:50.363Z,2.23
2022-10-30T01:33:23.863Z,1.87
2022-10-30T01:35:55.707Z,2.27
2022-10-30T01:38:27.545Z,2.80
2022-10-30T01:40:59.486Z,2.13
2022-10-30T01:43:33.172Z,2.40
2022-10-30T01:46:05.787Z,2.37
2022-10-30T01:48:37.629Z,2.63
2022-10-30T01:51:10.405Z,3.03
2022-10-30T01:53:43.005Z,2.23
2022-10-30T01:56:14.794Z,2.47
2022-10-30T01:58:47.243Z,3.00
2022-10-30T02:01:19.142Z,2.30
2022-10-30T02:03:51.369Z,2.53
2022-10-30T02:06:23.355Z,3.67
2022-10-30T02:08:55.318Z,2.40
2022-10-30T02:11:27.129Z,2.70
2022-10-30T02:13:58.912Z,2.10
2022-10-30T02:16:30.682Z,2.40
2022-10-30T02:19:02.436Z,3.93
2022-10-30T02:21:34.214Z,3.60
2022-10-30T02:24:06.213Z,2.37
2022-10-30T02:26:38.149Z,1.97
2022-10-30T02:29:10.263Z,1.77
2022-10-30T02:31:42.026Z,3.10
2022-10-30T02:34:14.103Z,3.27
2022-10-30T02:36:45.928Z,2.40
2022-10-30T02:39:17.697Z,2.73
2022-10-30T02:41:49.473Z,2.63
2022-10-30T02:44:21.216Z,2.67
2022-10-30T02:46:53.180Z,2.53
2022-10-30T02:49:26.510Z,2.53
2022-10-30T02:51:58.650Z,2.20
2022-10-30T02:54:30.414Z,1.90
2022-10-30T02:57:02.189Z,2.90
2022-10-30T02:59:34.038Z,2.67
2022-10-30T03:02:05.930Z,2.60
2022-10-30T03:04:37.928Z,2.93
2022-10-30T03:07:09.842Z,2.70
2022-10-30T03:09:41.728Z,1.90
2022-10-30T03:12:13.537Z,2.10
2022-10-30T03:14:45.314Z,2.13
2022-10-30T03:17:17.079Z,1.93
2022-10-30T03:19:48.819Z,2.30
2022-10-30T03:22:20.568Z,3.70
2022-10-30T03:24:52.376Z,2.73
2022-10-30T03:27:24.724Z,3.30
2022-10-30T03:29:56.979Z,3.10
2022-10-30T03:32:29.540Z,2.73
2022-10-30T03:35:01.444Z,1.70
2022-10-30T03:37:33.285Z,2.60
2022-10-30T03:40:05.245Z,2.17
2022-10-30T03:42:37.546Z,2.30
2022-10-30T03:45:10.362Z,2.97
2022-10-30T03:47:42.383Z,2.60
2022-10-30T03:50:14.149Z,3.27
2022-10-30T03:52:46.042Z,3.30
2022-10-30T03:55:17.819Z,3.03
2022-10-30T03:57:49.880Z,2.53
2022-10-30T04:00:22.526Z,2.63
2022-10-30T04:02:56.391Z,2.90
2022-10-30T04:05:29.346Z,3.00
2022-10-30T04:08:01.410Z,2.93
2022-10-30T04:10:34.872Z,3.03
2022-10-30T04:13:08.369Z,3.30
2022-10-30T04:15:41.905Z,2.70
2022-10-30T04:18:13.645Z,3.13
2022-10-30T04:20:45.518Z,2.80
2022-10-30T04:23:18.357Z,2.77
2022-10-30T04:25:50.214Z,3.07
2022-10-30T04:28:22.356Z,3.43
2022-10-30T04:30:54.220Z,3.90
2022-10-30T04:33:25.995Z,3.03
2022-10-30T04:35:58.743Z,2.80
2022-10-30T04:38:30.706Z,2.60
2022-10-30T04:41:02.652Z,3.03
2022-10-30T04:43:36.138Z,2.43
2022-10-30T04:46:07.905Z,3.17
2022-10-30T04:48:39.713Z,2.40
2022-10-30T04:51:12.037Z,3.20
2022-10-30T04:53:44.096Z,3.23
2022-10-30T04:56:17.276Z,2.63
2022-10-30T04:58:49.113Z,3.30
2022-10-30T05:01:20.993Z,3.00
2022-10-30T05:03:54.752Z,2.87
2022-10-30T05:06:26.727Z,3.53
2022-10-30T05:08:58.725Z,2.43
2022-10-30T05:11:32.212Z,2.80
2022-10-30T05:14:04.065Z,3.47
2022-10-30T05:16:35.844Z,3.03
2022-10-30T05:19:08.791Z,2.57
2022-10-30T05:21:40.851Z,3.10
2022-10-30T05:24:12.680Z,3.10
2022-10-30T05:26:46.171Z,2.60
2022-10-30T05:29:18.110Z,3.00
2022-10-30T05:31:49.981Z,3.93
2022-10-30T05:34:23.581Z,3.27
2022-10-30T05:36:57.135Z,4.17
2022-10-30T05:39:28.916Z,2.93
2022-10-30T05:42:01.553Z,3.27
2022-10-30T05:44:59.197Z,2.87
2022-10-30T05:47:08.443Z,3.37
2022-10-30T05:49:40.301Z,3.10
2022-10-30T05:52:13.788Z,3.83
2022-10-30T05:54:46.117Z,3.63
2022-10-30T05:57:19.603Z,2.87
2022-10-30T05:59:51.542Z,3.47
2022-10-30T06:02:23.763Z,3.13
2022-10-30T06:04:56.027Z,2.80
2022-10-30T06:07:27.904Z,3.70
2022-10-30T06:09:59.787Z,3.57
2022-10-30T06:12:42.159Z,3.07
2022-10-30T06:15:15.649Z,3.10
2022-10-30T06:17:48.492Z,3.40
2022-10-30T06:20:22.029Z,3.00
2022-10-30T06:23:12.045Z,3.80
2022-10-30T06:25:48.498Z,2.50
2022-10-30T06:28:21.975Z,3.03
2022-10-30T06:30:57.783Z,3.67
2022-10-30T06:33:29.640Z,3.17
2022-10-30T06:36:01.473Z,3.20
2022-10-30T06:38:33.449Z,3.23
2022-10-30T06:41:05.495Z,4.43
2022-10-30T06:43:39.009Z,3.07
2022-10-30T06:46:13.330Z,3.23
2022-10-30T06:48:46.822Z,4.70
2022-10-30T06:51:18.667Z,4.27
2022-10-30T06:53:52.056Z,3.73
2022-10-30T06:56:42.411Z,3.17
2022-10-30T06:59:15.849Z,3.03
2022-10-30T07:01:55.662Z,3.20
2022-10-30T07:04:28.187Z,3.17
2022-10-30T07:07:01.680Z,4.57
2022-10-30T07:09:34.322Z,3.77
2022-10-30T07:12:07.297Z,3.70
2022-10-30T07:14:47.056Z,3.43
2022-10-30T07:17:20.525Z,2.83
2022-10-30T07:19:54.044Z,2.50
2022-10-30T07:22:26.249Z,3.50
2022-10-30T07:24:59.057Z,3.53
2022-10-30T07:27:49.388Z,3.67
2022-10-30T07:30:40.915Z,3.97
2022-10-30T07:33:26.468Z,3.53
2022-10-30T07:35:59.994Z,3.27
2022-10-30T07:38:36.160Z,3.20
2022-10-30T07:41:09.660Z,3.67
2022-10-30T07:43:52.904Z,3.50
2022-10-30T07:46:32.227Z,3.33
2022-10-30T07:49:11.664Z,3.97
2022-10-30T07:51:48.147Z,3.13
2022-10-30T07:54:20.579Z,2.80
2022-10-30T07:56:52.723Z,3.30
2022-10-30T07:59:41.465Z,3.53
2022-10-30T08:02:27.075Z,4.67
2022-10-30T08:05:18.802Z,3.73
2022-10-30T08:07:54.963Z,3.40
2022-10-30T08:10:27.221Z,3.87
2022-10-30T08:12:59.135Z,3.40
2022-10-30T08:15:30.926Z,3.67
2022-10-30T08:18:02.853Z,3.23
2022-10-30T08:20:34.907Z,3.77
2022-10-30T08:23:06.831Z,4.10
2022-10-30T08:25:38.613Z,3.50
2022-10-30T08:28:10.422Z,2.43
2022-10-30T08:30:42.272Z,3.37
2022-10-30T08:33:15.698Z,3.47
2022-10-30T08:36:05.480Z,2.90
2022-10-30T08:38:37.353Z,3.57
2022-10-30T08:41:13.547Z,3.63
2022-10-30T08:43:52.802Z,3.10
2022-10-30T08:46:24.650Z,3.40
2022-10-30T08:48:56.430Z,3.03
2022-10-30T08:51:30.576Z,3.80
2022-10-30T08:54:02.395Z,4.27
2022-10-30T08:56:34.225Z,4.37
2022-10-30T08:59:07.762Z,3.40
2022-10-30T09:01:40.039Z,3.73
2022-10-30T09:04:25.698Z,3.00
2022-10-30T09:07:15.473Z,3.60
2022-10-30T09:09:57.725Z,3.23
2022-10-30T09:12:30.350Z,3.70
2022-10-30T09:15:02.511Z,3.87
2022-10-30T09:17:35.262Z,3.20
2022-10-30T09:20:07.019Z,3.10
2022-10-30T09:22:39.954Z,3.17
2022-10-30T09:25:12.204Z,2.90
2022-10-30T09:27:51.685Z,3.10
2022-10-30T09:30:24.637Z,3.13
2022-10-30T09:32:57.801Z,2.90
2022-10-30T09:35:32.489Z,3.37
2022-10-30T09:38:05.633Z,3.30
2022-10-30T09:40:37.443Z,3.30
2022-10-30T09:43:09.348Z,3.60
2022-10-30T09:45:41.166Z,3.33
2022-10-30T09:48:13.050Z,2.93
2022-10-30T09:50:46.579Z,3.87
2022-10-30T09:53:19.466Z,3.33
2022-10-30T09:55:51.569Z,3.80
2022-10-30T09:58:23.429Z,2.90
2022-10-30T10:00:57.257Z,3.80
2022-10-30T10:03:31.038Z,2.73
2022-10-30T10:06:07.039Z,3.33
2022-10-30T10:08:40.538Z,3.47
2022-10-30T10:11:20.031Z,3.90
2022-10-30T10:13:51.876Z,3.00
2022-10-30T10:16:23.664Z,3.07
2022-10-30T10:18:55.480Z,3.30
2022-10-30T10:21:27.358Z,3.07
2022-10-30T10:23:59.155Z,2.97
2022-10-30T10:26:30.951Z,3.10
2022-10-30T10:29:02.770Z,2.60
2022-10-30T10:31:34.641Z,2.73
2022-10-30T10:34:06.433Z,2.80
2022-10-30T10:36:38.421Z,2.83
2022-10-30T10:39:10.879Z,3.47
2022-10-30T10:41:42.661Z,2.80
2022-10-30T10:44:14.392Z,3.00
2022-10-30T10:46:46.220Z,2.20
2022-10-30T10:49:18.007Z,3.63
2022-10-30T10:51:49.795Z,2.40
2022-10-30T10:54:21.527Z,3.90
2022-10-30T10:56:53.319Z,2.90
2022-10-30T10:59:25.044Z,3.80
2022-10-30T11:01:56.908Z,3.33
2022-10-30T11:04:29.028Z,2.90
2022-10-30T11:07:00.818Z,2.90
2022-10-30T11:09:32.620Z,3.07
2022-10-30T11:12:04.377Z,2.73
2022-10-30T11:14:36.153Z,3.23
2022-10-30T11:17:08.343Z,3.43
2022-10-30T11:19:40.127Z,3.10
2022-10-30T11:22:11.876Z,3.40
2022-10-30T11:24:43.671Z,2.80
2022-10-30T11:27:15.463Z,3.70
2022-10-30T11:29:47.243Z,3.80
2022-10-30T11:32:19.034Z,3.67
2022-10-30T11:34:51.824Z,2.73
2022-10-30T11:37:23.570Z,2.90
2022-10-30T11:39:55.435Z,2.57
2022-10-30T11:42:27.255Z,3.30
2022-10-30T11:44:59.279Z,3.50
2022-10-30T11:47:31.107Z,2.30
2022-10-30T11:50:02.862Z,2.17
2022-10-30T11:52:34.675Z,2.20
2022-10-30T11:55:06.552Z,2.70
2022-10-30T11:57:38.417Z,2.50
2022-10-30T12:00:10.276Z,2.20
2022-10-30T12:02:45.354Z,2.57
2022-10-30T12:05:17.216Z,2.10
2022-10-30T12:07:49.158Z,2.33
2022-10-30T12:10:21.677Z,2.50
2022-10-30T12:12:53.454Z,2.30
2022-10-30T12:15:25.261Z,2.20
2022-10-30T12:17:57.100Z,2.47
2022-10-30T12:20:28.880Z,2.23
2022-10-30T12:23:01.156Z,2.60
2022-10-30T12:25:33.228Z,2.23
2022-10-30T12:28:04.987Z,2.63
2022-10-30T12:30:36.735Z,2.10
2022-10-30T12:33:08.555Z,1.90
2022-10-30T12:35:40.348Z,2.07
2022-10-30T12:38:12.106Z,1.97
2022-10-30T12:40:44.061Z,1.93
2022-10-30T12:43:16.069Z,2.00
2022-10-30T12:45:47.839Z,2.57
2022-10-30T12:48:19.736Z,3.23
2022-10-30T12:50:51.643Z,2.17
2022-10-30T12:53:23.400Z,1.80
2022-10-30T12:55:55.221Z,2.77
2022-10-30T12:58:26.995Z,2.40
2022-10-30T13:00:59.160Z,2.27
2022-10-30T13:03:31.571Z,2.63
2022-10-30T13:06:03.429Z,1.80
2022-10-30T13:08:35.241Z,2.10
2022-10-30T13:11:07.035Z,2.10
2022-10-30T13:13:38.798Z,2.57
2022-10-30T13:16:10.590Z,3.23
2022-10-30T13:18:42.581Z,2.00
2022-10-30T13:21:14.450Z,1.97
2022-10-30T13:23:46.238Z,1.67
2022-10-30T13:26:18.136Z,2.50
2022-10-30T13:28:50.232Z,2.37
2022-10-30T13:31:22.012Z,3.37
2022-10-30T13:33:53.814Z,1.63
2022-10-30T13:36:25.821Z,2.43
2022-10-30T13:38:57.619Z,3.27
2022-10-30T13:41:29.419Z,3.27
2022-10-30T13:44:01.194Z,2.10
2022-10-30T13:46:32.954Z,2.20
2022-10-30T13:49:04.758Z,2.47
2022-10-30T13:51:36.515Z,3.33
2022-10-30T13:54:08.440Z,2.20
2022-10-30T13:56:40.264Z,2.37
2022-10-30T13:59:12.084Z,2.40
2022-10-30T14:01:44.013Z,2.30
2022-10-30T14:04:15.943Z,2.07
2022-10-30T14:06:49.486Z,2.17
2022-10-30T14:09:21.247Z,2.10
2022-10-30T14:11:53.035Z,3.30
2022-10-30T14:14:24.821Z,2.50
2022-10-30T14:16:56.815Z,2.47
2022-10-30T14:19:28.604Z,3.10
2022-10-30T14:22:00.462Z,2.93
2022-10-30T14:24:32.207Z,2.70
2022-10-30T14:27:03.995Z,2.73
2022-10-30T14:29:35.744Z,2.67
2022-10-30T14:32:07.517Z,2.53
2022-10-30T14:34:39.320Z,3.77
2022-10-30T14:37:11.328Z,2.90
2022-10-30T14:39:43.143Z,3.23
2022-10-30T14:42:14.891Z,2.20
2022-10-30T14:44:46.678Z,3.57
2022-10-30T14:47:18.465Z,2.73
2022-10-30T14:49:50.345Z,3.30
2022-10-30T14:52:22.100Z,2.73
2022-10-30T14:54:53.889Z,4.33
2022-10-30T14:57:25.699Z,2.83
2022-10-30T14:59:57.477Z,2.80
2022-10-30T15:02:29.375Z,3.23
2022-10-30T15:05:05.404Z,3.00
2022-10-30T15:07:34.795Z,2.93
2022-10-30T15:10:06.643Z,3.47
2022-10-30T15:12:38.435Z,3.03
2022-10-30T15:15:10.259Z,3.67
2022-10-30T15:17:42.019Z,2.97
2022-10-30T15:20:13.814Z,3.43
2022-10-30T15:22:45.646Z,3.13
2022-10-30T15:25:17.526Z,3.87
2022-10-30T15:27:49.380Z,4.03
2022-10-30T15:30:21.930Z,3.27
2022-10-30T15:32:53.702Z,2.93
2022-10-30T15:35:25.496Z,3.50
2022-10-30T15:37:57.302Z,3.03
2022-10-30T15:40:29.067Z,2.70
2022-10-30T15:43:01.178Z,2.27
2022-10-30T15:45:33.617Z,2.33
2022-10-30T15:48:05.442Z,2.10
2022-10-30T15:50:37.234Z,2.13
2022-10-30T15:53:09.059Z,2.50
2022-10-30T15:55:40.863Z,1.60
2022-10-30T15:58:12.655Z,1.57
2022-10-30T16:00:44.438Z,1.20
2022-10-30T16:03:16.271Z,1.60
2022-10-30T16:05:48.056Z,1.70
2022-10-30T16:08:20.012Z,1.63
2022-10-30T16:10:51.905Z,1.30
2022-10-30T16:13:23.644Z,1.83
2022-10-30T16:15:55.464Z,1.40
2022-10-30T16:18:27.233Z,2.37
2022-10-30T16:20:59.026Z,1.90
2022-10-30T16:23:30.800Z,1.60
2022-10-30T16:26:02.610Z,1.47
2022-10-30T16:28:34.628Z,2.00
2022-10-30T16:31:06.455Z,2.60
2022-10-30T16:33:38.326Z,2.10
2022-10-30T16:36:10.132Z,1.40
2022-10-30T16:38:41.948Z,1.30
2022-10-30T16:41:13.706Z,1.50
2022-10-30T16:43:45.524Z,1.50
2022-10-30T16:46:17.346Z,1.50
2022-10-30T16:48:49.094Z,1.80
2022-10-30T16:51:20.880Z,1.23
2022-10-30T16:53:52.689Z,1.30
2022-10-30T16:56:24.485Z,1.40
2022-10-30T16:58:56.249Z,2.13
2022-10-30T17:01:28.294Z,1.17
2022-10-30T17:04:04.271Z,1.57
2022-10-30T17:06:36.737Z,1.53
2022-10-30T17:09:08.505Z,2.13
2022-10-30T17:11:40.373Z,2.33
2022-10-30T17:14:12.144Z,1.40
2022-10-30T17:16:43.962Z,2.23
2022-10-30T17:19:15.784Z,1.70
2022-10-30T17:21:47.576Z,1.83
2022-10-30T17:24:19.339Z,2.13
2022-10-30T17:26:51.094Z,1.83
2022-10-30T17:29:22.863Z,1.50
2022-10-30T17:31:54.677Z,1.60
2022-10-30T17:34:26.484Z,2.37
2022-10-30T17:36:58.240Z,2.03
2022-10-30T17:39:30.102Z,2.20
2022-10-30T17:42:01.870Z,1.97
2022-10-30T17:44:33.692Z,2.10
2022-10-30T17:47:05.847Z,1.60
2022-10-30T17:49:37.716Z,2.10
2022-10-30T17:52:09.908Z,2.17
2022-10-30T17:54:41.711Z,1.80
2022-10-30T17:57:13.533Z,1.37
2022-10-30T17:59:45.314Z,1.70
2022-10-30T18:02:17.175Z,1.50
2022-10-30T18:04:51.394Z,1.87
2022-10-30T18:07:23.561Z,1.87
2022-10-30T18:09:55.712Z,1.93
2022-10-30T18:12:27.531Z,1.70
2022-10-30T18:14:59.702Z,1.80
2022-10-30T18:17:31.618Z,2.00
2022-10-30T18:20:03.451Z,3.77
2022-10-30T18:22:35.195Z,1.80
2022-10-30T18:25:07.032Z,2.30
2022-10-30T18:27:38.879Z,2.43
2022-10-30T18:30:11.129Z,1.93
2022-10-30T18:32:42.951Z,2.27
2022-10-30T18:35:14.860Z,2.20
2022-10-30T18:37:46.608Z,1.83
2022-10-30T18:40:22.379Z,1.80
2022-10-30T18:42:52.839Z,2.67
2022-10-30T18:45:24.692Z,2.13
2022-10-30T18:47:56.921Z,2.13
2022-10-30T18:50:29.091Z,2.93
2022-10-30T18:53:02.098Z,2.53
2022-10-30T18:55:33.928Z,2.23
2022-10-30T18:58:05.699Z,1.90
2022-10-30T19:00:58.111Z,2.00
2022-10-30T19:03:11.008Z,1.87
2022-10-30T19:05:42.816Z,2.33
2022-10-30T19:08:14.782Z,2.37
2022-10-30T19:10:46.586Z,2.00
2022-10-30T19:13:19.037Z,2.00
2022-10-30T19:15:52.886Z,2.30
2022-10-30T19:18:24.637Z,1.50
2022-10-30T19:21:05.712Z,2.00
2022-10-30T19:23:29.845Z,1.90
2022-10-30T19:26:01.708Z,2.27
2022-10-30T19:28:33.664Z,1.70
2022-10-30T19:31:05.430Z,2.23
2022-10-30T19:33:37.209Z,2.27
2022-10-30T19:36:09.146Z,1.87
2022-10-30T19:38:40.901Z,2.17
2022-10-30T19:41:12.704Z,2.47
2022-10-30T19:43:44.702Z,2.40
2022-10-30T19:46:16.633Z,1.67
2022-10-30T19:48:57.121Z,1.40
2022-10-30T19:51:21.823Z,2.60
2022-10-30T19:53:53.736Z,1.73
2022-10-30T19:56:25.821Z,2.67
2022-10-30T19:58:57.594Z,1.67
2022-10-30T20:01:29.464Z,1.90
2022-10-30T20:04:01.504Z,1.80
2022-10-30T20:06:33.299Z,1.90
2022-10-30T20:09:05.094Z,1.70
2022-10-30T20:11:36.877Z,1.37
2022-10-30T20:14:08.638Z,1.33
2022-10-30T20:16:40.431Z,1.20
2022-10-30T20:19:12.223Z,1.20
2022-10-30T20:21:44.207Z,1.60
2022-10-30T20:24:15.983Z,1.83
2022-10-30T20:26:48.002Z,1.20
2022-10-30T20:29:19.774Z,1.23
2022-10-30T20:31:51.901Z,1.50
2022-10-30T20:34:25.707Z,1.23
2022-10-30T20:36:57.525Z,1.40
2022-10-30T20:39:29.606Z,1.33
2022-10-30T20:42:01.392Z,1.10
2022-10-30T20:44:33.172Z,1.13
2022-10-30T20:47:04.983Z,1.20
2022-10-30T20:49:36.800Z,0.90
2022-10-30T20:52:08.687Z,1.17
2022-10-30T20:54:40.634Z,1.10
2022-10-30T20:57:12.422Z,1.37
2022-10-30T20:59:44.228Z,1.00
2022-10-30T21:02:16.250Z,1.23
2022-10-30T21:04:48.166Z,1.50
2022-10-30T21:07:19.983Z,0.97
2022-10-30T21:09:51.749Z,1.50
2022-10-30T21:12:23.545Z,0.90
2022-10-30T21:14:55.359Z,0.80
2022-10-30T21:17:27.145Z,0.90
2022-10-30T21:19:58.972Z,0.73
2022-10-30T21:22:30.897Z,0.90
2022-10-30T21:25:02.641Z,1.00
2022-10-30T21:27:34.520Z,0.77
2022-10-30T21:30:06.442Z,0.70
2022-10-30T21:32:38.272Z,1.47
2022-10-30T21:35:10.049Z,0.80
2022-10-30T21:37:42.385Z,0.87
2022-10-30T21:40:14.314Z,0.80
2022-10-30T21:42:46.243Z,1.10
2022-10-30T21:45:18.090Z,0.87
2022-10-30T21:47:50.337Z,0.90
2022-10-30T21:50:22.864Z,0.90
2022-10-30T21:52:54.963Z,1.10
2022-10-30T21:55:26.879Z,0.90
2022-10-30T21:58:00.459Z,1.30
2022-10-30T22:00:32.784Z,0.80
2022-10-30T22:03:04.688Z,1.30
2022-10-30T22:05:36.795Z,1.20
2022-10-30T22:08:08.757Z,1.23
2022-10-30T22:10:40.565Z,1.40
2022-10-30T22:15:44.379Z,1.20
2022-10-30T22:18:16.343Z,1.30
2022-10-30T22:20:48.070Z,1.63
2022-10-30T22:23:19.847Z,1.40
2022-10-30T22:25:51.605Z,2.00
2022-10-30T22:28:23.489Z,1.10
2022-10-30T22:30:55.287Z,1.33
2022-10-30T22:33:27.116Z,1.27
2022-10-30T22:35:58.920Z,2.10
2022-10-30T22:38:30.708Z,1.30
2022-10-30T22:41:02.526Z,1.60
2022-10-30T22:43:34.421Z,2.20
2022-10-30T22:46:06.175Z,1.40
2022-10-30T22:48:37.931Z,1.93
2022-10-30T22:51:13.501Z,1.03
2022-10-30T22:53:43.225Z,1.80
2022-10-30T22:56:14.998Z,1.33
2022-10-30T22:58:47.004Z,2.00
2022-10-30T23:01:18.860Z,2.00
2022-10-30T23:03:50.729Z,1.77
2022-10-30T23:06:22.527Z,1.63
2022-10-30T23:08:54.317Z,2.13
2022-10-30T23:11:26.092Z,1.63
2022-10-30T23:13:59.502Z,2.10
2022-10-30T23:16:31.302Z,1.30
2022-10-30T23:19:03.239Z,1.20
2022-10-30T23:21:35.138Z,1.80
2022-10-30T23:24:06.946Z,1.27
2022-10-30T23:26:38.710Z,1.13
2022-10-30T23:29:10.487Z,1.40
2022-10-30T23:31:42.492Z,1.10
2022-10-30T23:34:14.302Z,1.50
2022-10-30T23:36:46.145Z,1.20
2022-10-30T23:39:17.959Z,1.20
2022-10-30T23:41:49.964Z,1.60
2022-10-30T23:44:22.504Z,1.20
2022-10-30T23:46:54.287Z,1.40
2022-10-30T23:49:29.017Z,1.43
2022-10-30T23:51:59.697Z,1.87
2022-10-30T23:54:31.477Z,1.80
2022-10-30T23:57:03.233Z,2.27
2022-10-30T23:59:35.077Z,1.37
